Time;durP1;ratioP1;P1;durP2;ratioP2;P2;SDS_P1;SDS_P2;PMS_P1;PMS_P2;Temp;Humidity;BMP_temperature;BMP_pressure;BME280_temperature;BME280_humidity;BME280_pressure;Samples;Min_cycle;Max_cycle;Signal;HPM_P1;HPM_P2
2022/12/18 00:01:00;;;;;;;102.13;39.28;;;-2.90;99.90;;;;;;4930163;29;20438;-82
2022/12/18 00:03:26;;;;;;;117.05;42.08;;;-2.90;99.90;;;;;;4925659;29;20040;-82
2022/12/18 00:05:52;;;;;;;105.88;42.58;;;-2.80;99.90;;;;;;4912892;29;20044;-82
2022/12/18 00:08:18;;;;;;;105.18;40.60;;;-2.90;99.90;;;;;;4927212;29;20575;-82
2022/12/18 00:10:44;;;;;;;93.82;40.00;;;-2.90;99.90;;;;;;4932556;29;20446;-84
2022/12/18 00:13:11;;;;;;;94.82;37.95;;;-2.90;99.90;;;;;;4917547;29;20052;-84
2022/12/18 00:15:38;;;;;;;93.50;37.78;;;-3.00;99.90;;;;;;4932235;29;20054;-83
2022/12/18 00:18:05;;;;;;;88.85;36.47;;;-2.90;99.90;;;;;;4932650;29;20376;-81
2022/12/18 00:20:30;;;;;;;86.45;34.45;;;-2.90;99.90;;;;;;4933284;29;20525;-84
2022/12/18 00:22:56;;;;;;;85.28;36.33;;;-2.50;99.90;;;;;;4935429;29;20104;-83
2022/12/18 00:25:22;;;;;;;87.72;35.97;;;-3.00;99.90;;;;;;4918792;29;20382;-82
2022/12/18 00:27:48;;;;;;;87.03;34.72;;;-3.10;99.90;;;;;;4931189;29;20040;-82
2022/12/18 00:30:14;;;;;;;89.97;36.38;;;-3.20;99.90;;;;;;4935252;29;20039;-83
2022/12/18 00:32:40;;;;;;;86.65;35.83;;;-3.20;99.90;;;;;;4930735;29;20120;-83
2022/12/18 00:35:06;;;;;;;83.15;35.60;;;-3.20;99.90;;;;;;4930808;29;20087;-84
2022/12/18 00:37:33;;;;;;;88.65;35.50;;;-3.20;99.90;;;;;;4933296;29;20501;-83
2022/12/18 00:39:59;;;;;;;77.93;35.67;;;-3.20;99.90;;;;;;4933906;29;20050;-84
2022/12/18 00:45:09;;;;;;;83.80;36.58;;;-3.20;99.90;;;;;;4932379;29;20044;-83
2022/12/18 00:47:34;;;;;;;82.47;35.88;;;-3.20;99.90;;;;;;4933736;29;20035;-83
2022/12/18 00:50:00;;;;;;;92.68;36.03;;;-3.20;99.90;;;;;;4928009;29;20035;-82
2022/12/18 00:52:25;;;;;;;90.55;36.10;;;-3.00;99.90;;;;;;4929778;29;20119;-83
2022/12/18 00:54:51;;;;;;;96.68;39.33;;;-3.20;99.90;;;;;;4919596;29;20048;-83
2022/12/18 00:57:16;;;;;;;79.38;35.33;;;-3.20;99.90;;;;;;4921574;29;20043;-83
2022/12/18 00:59:42;;;;;;;98.43;36.75;;;-3.30;99.90;;;;;;4910551;29;20459;-84
2022/12/18 01:02:07;;;;;;;88.05;36.92;;;-3.30;99.90;;;;;;4927940;29;20040;-83
2022/12/18 01:04:34;;;;;;;77.80;35.17;;;-3.20;99.90;;;;;;4933121;29;20199;-82
2022/12/18 01:06:59;;;;;;;91.40;37.70;;;-3.40;99.90;;;;;;4921668;29;20048;-83
2022/12/18 01:09:25;;;;;;;81.72;36.38;;;-3.30;99.90;;;;;;4917921;29;20161;-83
2022/12/18 01:11:51;;;;;;;88.00;35.70;;;-3.30;99.90;;;;;;4917391;29;20131;-83
2022/12/18 01:14:16;;;;;;;90.18;37.38;;;-3.10;99.90;;;;;;4931226;29;20079;-83
2022/12/18 01:16:42;;;;;;;91.03;40.03;;;-3.40;99.90;;;;;;4914809;29;20036;-82
2022/12/18 01:19:07;;;;;;;90.30;36.78;;;-3.40;99.90;;;;;;4931618;29;20099;-83
2022/12/18 01:21:33;;;;;;;87.40;36.72;;;-3.40;99.90;;;;;;4918580;29;20115;-83
2022/12/18 01:23:58;;;;;;;89.70;37.13;;;-3.00;99.90;;;;;;4945834;28;20032;-84
2022/12/18 01:26:25;;;;;;;91.13;38.55;;;-3.40;99.90;;;;;;4926986;29;20179;-82
2022/12/18 01:28:50;;;;;;;92.03;39.08;;;-3.50;99.90;;;;;;4926909;29;20056;-83
2022/12/18 01:31:19;;;;;;;100.88;40.75;;;-3.40;99.90;;;;;;4915093;29;20045;-83
2022/12/18 01:33:45;;;;;;;93.20;41.33;;;-3.50;99.90;;;;;;4918423;29;20060;-84
2022/12/18 01:36:20;;;;;;;97.53;39.88;;;-3.30;99.90;;;;;;4935570;29;20123;-82
2022/12/18 01:38:46;;;;;;;98.88;39.28;;;-3.10;99.90;;;;;;4934610;29;20043;-84
2022/12/18 01:41:12;;;;;;;105.45;41.22;;;-3.50;99.90;;;;;;4931795;29;20503;-83
2022/12/18 01:43:41;;;;;;;107.95;42.55;;;-3.40;99.90;;;;;;4925954;29;20060;-84
2022/12/18 01:46:07;;;;;;;110.72;41.13;;;-3.40;99.90;;;;;;4915022;29;20040;-82
2022/12/18 01:48:33;;;;;;;99.30;41.28;;;-3.40;99.90;;;;;;4935164;29;20040;-83
2022/12/18 01:50:59;;;;;;;103.28;40.83;;;-3.40;99.90;;;;;;4926896;29;20048;-82
2022/12/18 01:53:25;;;;;;;93.32;39.13;;;-3.10;99.90;;;;;;4935376;29;20074;-83
2022/12/18 01:55:54;;;;;;;96.75;40.40;;;-3.40;99.90;;;;;;4929273;29;20458;-82
2022/12/18 01:58:27;;;;;;;93.72;40.03;;;-3.40;99.90;;;;;;4925864;29;20044;-82
2022/12/18 02:00:54;;;;;;;99.18;39.97;;;-3.40;99.90;;;;;;4930204;29;20052;-82
2022/12/18 02:03:20;;;;;;;86.47;40.45;;;-3.50;99.90;;;;;;4927524;29;20063;-83
2022/12/18 02:06:07;;;;;;;87.07;40.55;;;-3.50;99.90;;;;;;4914188;29;20115;-82
2022/12/18 02:08:48;;;;;;;96.90;40.08;;;-3.50;99.90;;;;;;4928019;29;20446;-83
2022/12/18 02:11:39;;;;;;;87.47;39.75;;;-3.50;99.90;;;;;;4929781;29;20070;-83
2022/12/18 02:14:29;;;;;;;92.07;40.20;;;-3.50;99.90;;;;;;4933940;29;20423;-83
2022/12/18 02:17:09;;;;;;;90.80;38.75;;;-3.60;99.90;;;;;;4923527;29;20036;-83
2022/12/18 02:19:53;;;;;;;96.25;39.22;;;-3.60;99.90;;;;;;4930589;29;20425;-84
2022/12/18 02:22:38;;;;;;;89.95;39.55;;;-3.60;99.90;;;;;;4916831;29;20502;-83
2022/12/18 02:25:43;;;;;;;90.47;38.30;;;-3.60;99.90;;;;;;4931468;29;20044;-83
2022/12/18 02:28:13;;;;;;;93.18;38.85;;;-3.70;99.90;;;;;;4897307;29;20051;-84
2022/12/18 02:30:40;;;;;;;92.50;40.35;;;-3.80;99.90;;;;;;4930301;29;20372;-82
2022/12/18 02:33:08;;;;;;;80.45;35.08;;;-3.70;99.90;;;;;;4929870;29;20040;-83
2022/12/18 02:35:36;;;;;;;81.93;38.22;;;-3.80;99.90;;;;;;4931530;29;20039;-83
2022/12/18 02:38:03;;;;;;;82.10;37.30;;;-3.80;99.90;;;;;;4916708;29;20419;-84
2022/12/18 02:40:30;;;;;;;76.40;36.20;;;-3.90;99.90;;;;;;4916860;29;20042;-82
2022/12/18 02:43:01;;;;;;;79.80;36.80;;;-3.80;99.90;;;;;;4925543;29;20062;-84
2022/12/18 02:45:27;;;;;;;72.80;35.20;;;-3.90;99.90;;;;;;4932091;29;20043;-82
2022/12/18 02:47:53;;;;;;;80.78;35.10;;;-3.90;99.90;;;;;;4931067;29;20066;-82
2022/12/18 02:50:29;;;;;;;76.35;34.70;;;-3.90;99.90;;;;;;4928852;29;20538;-82
2022/12/18 02:53:01;;;;;;;77.28;34.58;;;-3.90;99.90;;;;;;4927797;29;20105;-83
2022/12/18 02:55:39;;;;;;;78.32;35.53;;;-4.00;99.90;;;;;;4915364;29;20090;-83
2022/12/18 02:58:42;;;;;;;75.28;34.20;;;-4.00;99.90;;;;;;4924259;29;20040;-83
2022/12/18 03:01:14;;;;;;;83.47;34.03;;;-4.00;99.90;;;;;;4929215;29;20071;-82
2022/12/18 03:03:52;;;;;;;79.03;34.85;;;-4.10;99.90;;;;;;4929874;29;20044;-83
2022/12/18 03:06:39;;;;;;;77.97;34.30;;;-4.10;99.90;;;;;;4928662;29;20040;-83
2022/12/18 03:09:10;;;;;;;79.60;34.17;;;-4.10;99.90;;;;;;4917004;29;20039;-84
2022/12/18 03:14:28;;;;;;;72.03;33.35;;;-4.10;99.90;;;;;;4922734;29;20052;-83
2022/12/18 03:16:57;;;;;;;79.10;34.70;;;-4.10;99.90;;;;;;4929994;29;20056;-83
2022/12/18 03:19:27;;;;;;;85.63;35.03;;;-4.10;99.90;;;;;;4915386;29;20048;-82
2022/12/18 03:21:56;;;;;;;76.65;34.60;;;-4.20;99.90;;;;;;4917030;29;20126;-82
2022/12/18 03:24:24;;;;;;;75.18;32.67;;;-4.20;99.90;;;;;;4929627;29;20083;-82
2022/12/18 03:26:54;;;;;;;72.78;33.08;;;-3.90;99.90;;;;;;4914174;29;20179;-84
2022/12/18 03:29:26;;;;;;;77.25;32.67;;;-4.20;99.90;;;;;;4927048;29;20040;-83
2022/12/18 03:31:57;;;;;;;68.55;31.67;;;-4.20;99.90;;;;;;4930564;29;20047;-82
2022/12/18 03:34:29;;;;;;;69.30;32.55;;;-4.30;99.90;;;;;;4928484;29;20059;-82
2022/12/18 03:36:54;;;;;;;70.18;30.85;;;-4.00;99.90;;;;;;4926141;29;20043;-83
2022/12/18 03:39:20;;;;;;;70.53;31.50;;;-4.30;99.90;;;;;;4930553;29;20122;-83
2022/12/18 03:42:15;;;;;;;75.45;30.85;;;-4.30;99.90;;;;;;4909246;29;20040;-83
2022/12/18 03:45:02;;;;;;;68.68;30.52;;;-4.30;99.90;;;;;;4911281;29;20052;-84
2022/12/18 03:47:36;;;;;;;69.30;31.38;;;-4.40;99.90;;;;;;4932231;29;20051;-83
2022/12/18 03:50:29;;;;;;;71.78;30.48;;;-4.40;99.90;;;;;;4931021;29;20044;-84
2022/12/18 03:53:08;;;;;;;67.45;29.70;;;-4.40;99.90;;;;;;4931504;29;20048;-83
2022/12/18 03:55:35;;;;;;;76.57;31.02;;;-4.40;99.90;;;;;;4918003;29;20040;-82
2022/12/18 03:58:03;;;;;;;73.22;31.63;;;-4.00;99.90;;;;;;4930468;29;20130;-83
2022/12/18 04:00:30;;;;;;;76.07;30.42;;;-4.40;99.90;;;;;;4927809;29;20051;-84
2022/12/18 04:02:59;;;;;;;73.15;32.33;;;-4.90;99.90;;;;;;4928985;29;20051;-83
2022/12/18 04:05:26;;;;;;;68.20;28.80;;;-4.50;99.90;;;;;;4935074;29;20040;-83
2022/12/18 04:07:54;;;;;;;74.30;31.38;;;-4.50;99.90;;;;;;4930560;29;20048;-83
2022/12/18 04:10:20;;;;;;;72.68;30.02;;;-4.40;99.90;;;;;;4934195;29;20040;-82
2022/12/18 04:12:45;;;;;;;63.35;29.50;;;-4.50;99.90;;;;;;4917511;29;20040;-83
2022/12/18 04:15:12;;;;;;;71.95;31.33;;;-4.60;99.90;;;;;;4919736;29;20051;-83
2022/12/18 04:17:43;;;;;;;73.30;31.40;;;-4.50;99.90;;;;;;4931049;29;20043;-83
2022/12/18 04:20:09;;;;;;;68.38;30.25;;;-4.40;99.90;;;;;;4935197;29;20047;-83
2022/12/18 04:22:35;;;;;;;74.95;32.08;;;-4.60;99.90;;;;;;4930308;29;20557;-82
2022/12/18 04:25:00;;;;;;;71.70;29.80;;;-4.60;99.90;;;;;;4925464;29;20126;-83
2022/12/18 04:27:26;;;;;;;75.43;30.98;;;-4.60;99.90;;;;;;4916425;29;20498;-83
2022/12/18 04:29:51;;;;;;;67.60;30.27;;;-4.60;99.90;;;;;;4918652;29;20050;-83
2022/12/18 04:32:17;;;;;;;70.63;29.40;;;-4.60;99.90;;;;;;4913238;29;20044;-83
2022/12/18 04:34:43;;;;;;;62.60;28.80;;;-4.60;99.90;;;;;;4915836;29;20156;-83
2022/12/18 04:37:08;;;;;;;61.13;27.35;;;-4.70;99.90;;;;;;4929046;29;20048;-84
2022/12/18 04:39:35;;;;;;;64.32;28.88;;;-4.60;99.90;;;;;;4928513;29;20442;-84
2022/12/18 04:42:01;;;;;;;67.85;28.25;;;-4.70;99.90;;;;;;4925995;29;20046;-83
2022/12/18 04:44:26;;;;;;;60.10;28.90;;;-4.70;99.90;;;;;;4929451;29;20115;-83
2022/12/18 04:46:52;;;;;;;74.38;28.23;;;-4.70;99.90;;;;;;4931670;29;20036;-83
2022/12/18 04:49:17;;;;;;;59.20;27.90;;;-4.60;99.90;;;;;;4912722;29;20040;-83
2022/12/18 04:51:43;;;;;;;65.43;27.27;;;-4.70;99.90;;;;;;4928137;29;20043;-83
2022/12/18 04:54:08;;;;;;;67.13;26.95;;;-4.40;99.90;;;;;;4926833;29;20120;-84
2022/12/18 04:56:34;;;;;;;60.83;25.15;;;-4.70;99.90;;;;;;4915444;29;20046;-83
2022/12/18 04:58:59;;;;;;;51.33;25.48;;;-4.70;99.90;;;;;;4917653;29;20052;-83
2022/12/18 05:01:25;;;;;;;57.83;26.35;;;-4.70;99.90;;;;;;4919453;29;20051;-83
2022/12/18 05:03:53;;;;;;;55.83;25.38;;;-4.70;99.90;;;;;;4919250;29;20842;-83
2022/12/18 05:06:19;;;;;;;52.40;25.05;;;-4.60;99.90;;;;;;4928283;29;20183;-84
2022/12/18 05:08:45;;;;;;;53.28;23.83;;;-4.70;99.90;;;;;;4916934;29;20521;-84
2022/12/18 05:11:15;;;;;;;53.58;25.35;;;-4.80;99.90;;;;;;4930591;29;20048;-84
2022/12/18 05:13:42;;;;;;;49.75;23.67;;;-4.70;99.90;;;;;;4929370;29;20047;-83
2022/12/18 05:16:07;;;;;;;47.63;23.55;;;-4.70;99.90;;;;;;4932168;29;20040;-83
2022/12/18 05:18:33;;;;;;;46.25;22.27;;;-4.70;99.90;;;;;;4931215;29;20046;-83
2022/12/18 05:20:59;;;;;;;46.03;22.98;;;-4.70;99.90;;;;;;4930884;29;20177;-82
2022/12/18 05:23:25;;;;;;;51.95;23.38;;;-4.70;99.90;;;;;;4933161;29;20027;-83
2022/12/18 05:25:59;;;;;;;53.95;23.00;;;-4.70;99.90;;;;;;4944404;28;20083;-82
2022/12/18 05:28:26;;;;;;;43.38;22.48;;;-4.70;99.90;;;;;;4947491;29;20039;-83
2022/12/18 05:30:54;;;;;;;48.58;21.70;;;-4.70;99.90;;;;;;4930156;29;20071;-83
2022/12/18 05:33:21;;;;;;;48.55;22.92;;;-4.80;99.90;;;;;;4930542;29;20599;-84
2022/12/18 05:35:55;;;;;;;44.25;20.77;;;-4.70;99.90;;;;;;4934056;29;20042;-84
2022/12/18 05:38:22;;;;;;;46.95;22.70;;;-4.70;99.90;;;;;;4920099;29;20066;-82
2022/12/18 05:40:48;;;;;;;43.00;20.58;;;-4.70;99.90;;;;;;4928801;29;20392;-83
2022/12/18 05:43:14;;;;;;;51.00;23.15;;;-4.70;99.90;;;;;;4927044;29;20123;-84
2022/12/18 05:45:40;;;;;;;45.53;21.27;;;-4.80;99.90;;;;;;4909938;29;20113;-83
2022/12/18 05:48:06;;;;;;;47.15;21.42;;;-4.70;99.90;;;;;;4913305;29;20043;-83
2022/12/18 05:50:37;;;;;;;42.88;21.83;;;-4.60;99.90;;;;;;4927383;29;21096;-83
2022/12/18 05:53:04;;;;;;;43.35;20.45;;;-4.80;99.90;;;;;;4932580;29;20036;-83
2022/12/18 05:55:37;;;;;;;45.63;21.67;;;-4.80;99.90;;;;;;4926652;29;20035;-83
2022/12/18 05:58:04;;;;;;;47.08;22.08;;;-4.80;99.90;;;;;;4928542;29;20111;-82
2022/12/18 06:00:31;;;;;;;38.50;18.60;;;-4.80;99.90;;;;;;4929948;29;20044;-82
2022/12/18 06:02:57;;;;;;;41.80;21.13;;;-4.80;99.90;;;;;;4913016;29;20051;-83
2022/12/18 06:05:23;;;;;;;39.15;20.75;;;-4.80;99.90;;;;;;4932902;29;20539;-83
2022/12/18 06:07:48;;;;;;;48.42;20.90;;;-4.80;99.90;;;;;;4931300;29;20035;-83
2022/12/18 06:10:14;;;;;;;42.22;20.55;;;-4.70;99.90;;;;;;4913194;29;20039;-83
2022/12/18 06:12:39;;;;;;;40.05;20.52;;;-4.80;99.90;;;;;;4925973;29;20041;-84
2022/12/18 06:15:05;;;;;;;37.03;19.42;;;-4.50;99.90;;;;;;4910507;29;20040;-84
2022/12/18 06:17:32;;;;;;;47.45;20.80;;;-4.80;99.90;;;;;;4915086;29;20050;-84
2022/12/18 06:19:58;;;;;;;43.35;19.80;;;-4.90;99.90;;;;;;4927222;29;20059;-84
2022/12/18 06:22:23;;;;;;;44.28;19.95;;;-4.90;99.90;;;;;;4911990;29;20032;-83
2022/12/18 06:24:49;;;;;;;45.53;20.25;;;-4.90;99.90;;;;;;4924642;29;20102;-83
2022/12/18 06:27:15;;;;;;;43.83;20.55;;;-4.90;99.90;;;;;;4924643;29;20051;-83
2022/12/18 06:29:41;;;;;;;36.50;18.60;;;-4.90;99.90;;;;;;4926309;29;20047;-83
2022/12/18 06:32:06;;;;;;;33.15;18.60;;;-4.80;99.90;;;;;;4914886;29;20047;-83
2022/12/18 06:34:33;;;;;;;32.88;17.67;;;-4.80;99.90;;;;;;4909427;29;20044;-84
2022/12/18 06:36:59;;;;;;;38.00;20.88;;;-4.90;99.90;;;;;;4923502;29;20519;-83
2022/12/18 06:39:26;;;;;;;42.33;19.42;;;-4.90;99.90;;;;;;4926766;29;20059;-84
2022/12/18 06:41:52;;;;;;;32.63;19.00;;;-4.90;99.90;;;;;;4924614;29;20051;-83
2022/12/18 06:44:17;;;;;;;40.45;21.40;;;-5.00;99.90;;;;;;4925573;29;20521;-83
2022/12/18 06:46:43;;;;;;;36.28;19.23;;;-4.90;99.90;;;;;;4914838;29;20519;-83
2022/12/18 06:49:09;;;;;;;38.47;19.70;;;-5.10;99.90;;;;;;4926955;29;20038;-84
2022/12/18 06:51:35;;;;;;;38.28;18.90;;;-5.00;99.90;;;;;;4927558;29;20047;-83
2022/12/18 06:54:01;;;;;;;41.10;19.48;;;-5.00;99.90;;;;;;4924256;29;20044;-84
2022/12/18 06:56:26;;;;;;;37.92;18.70;;;-5.00;99.90;;;;;;4931051;29;20040;-83
2022/12/18 06:58:55;;;;;;;37.05;17.85;;;-5.00;99.90;;;;;;4913535;29;20082;-86
2022/12/18 07:01:22;;;;;;;32.90;17.65;;;-5.10;99.90;;;;;;4925382;29;20475;-85
2022/12/18 07:03:54;;;;;;;34.90;18.88;;;-5.00;99.90;;;;;;4908431;29;20483;-87
2022/12/18 07:06:24;;;;;;;36.58;18.55;;;-4.90;99.90;;;;;;4931268;29;20407;-86
2022/12/18 07:08:51;;;;;;;35.30;17.88;;;-5.10;99.90;;;;;;4925433;29;20050;-86
2022/12/18 07:11:18;;;;;;;36.78;18.73;;;-5.10;99.90;;;;;;4926589;29;20086;-85
2022/12/18 07:13:44;;;;;;;33.30;18.20;;;-5.10;99.90;;;;;;4930356;29;20122;-82
2022/12/18 07:16:17;;;;;;;37.30;18.95;;;-5.20;99.90;;;;;;4919144;29;20032;-84
2022/12/18 07:18:43;;;;;;;32.90;17.58;;;-5.20;99.90;;;;;;4926266;29;20047;-85
2022/12/18 07:21:12;;;;;;;33.97;17.73;;;-5.30;99.90;;;;;;4929894;29;20069;-86
2022/12/18 07:23:38;;;;;;;34.20;17.50;;;-5.30;99.90;;;;;;4913447;29;20077;-85
2022/12/18 07:26:05;;;;;;;33.33;18.58;;;-5.30;99.90;;;;;;4933431;29;20039;-84
2022/12/18 07:28:32;;;;;;;40.88;18.60;;;-5.40;99.90;;;;;;4932297;29;20040;-82
2022/12/18 07:31:02;;;;;;;33.67;18.50;;;-5.40;99.90;;;;;;4931359;29;20083;-83
2022/12/18 07:33:28;;;;;;;36.83;18.00;;;-5.40;99.90;;;;;;4933879;29;20036;-84
2022/12/18 07:35:53;;;;;;;39.20;18.98;;;-4.10;99.90;;;;;;4921747;29;20201;-80
2022/12/18 07:38:22;;;;;;;37.72;19.88;;;-4.90;99.90;;;;;;4920432;29;20480;-92
2022/12/18 07:40:48;;;;;;;36.60;18.02;;;-4.90;99.90;;;;;;4918008;29;20048;-87
2022/12/18 07:43:13;;;;;;;37.65;18.38;;;-5.30;99.90;;;;;;4935013;29;20039;-88
2022/12/18 07:45:39;;;;;;;36.90;20.58;;;-5.50;99.90;;;;;;4932790;29;20043;-82
2022/12/18 07:48:05;;;;;;;34.80;19.83;;;-5.50;99.90;;;;;;4933385;29;20115;-84
2022/12/18 07:50:31;;;;;;;44.17;21.50;;;-5.50;99.90;;;;;;4920022;29;20043;-83
2022/12/18 07:52:57;;;;;;;34.72;18.33;;;-5.50;99.90;;;;;;4931251;29;20035;-85
2022/12/18 07:55:23;;;;;;;39.20;18.88;;;-5.50;99.90;;;;;;4930675;29;20043;-84
2022/12/18 07:57:48;;;;;;;39.70;20.40;;;-5.50;99.90;;;;;;4937998;29;20662;-82
2022/12/18 08:00:14;;;;;;;36.17;19.38;;;-5.50;99.90;;;;;;4934758;29;20494;-82
2022/12/18 08:02:50;;;;;;;35.35;18.73;;;-5.50;99.90;;;;;;4929841;29;20044;-84
2022/12/18 08:05:16;;;;;;;36.08;18.35;;;-5.50;99.90;;;;;;4918862;29;20044;-82
2022/12/18 08:07:42;;;;;;;28.23;16.35;;;-5.50;99.90;;;;;;4913699;29;20036;-86
2022/12/18 08:10:08;;;;;;;31.85;18.50;;;-5.30;99.90;;;;;;4914590;29;20035;-86
2022/12/18 08:12:33;;;;;;;32.90;18.63;;;-5.50;99.90;;;;;;4912077;29;20048;-85
2022/12/18 08:14:59;;;;;;;32.15;19.50;;;-5.50;99.90;;;;;;4912676;29;20039;-86
2022/12/18 08:17:24;;;;;;;35.38;18.55;;;-5.50;99.90;;;;;;4911694;29;20483;-86
2022/12/18 08:19:50;;;;;;;29.10;16.35;;;-5.50;99.90;;;;;;4909118;29;20043;-85
2022/12/18 08:22:16;;;;;;;31.52;16.13;;;-5.40;99.90;;;;;;4929751;29;20035;-82
2022/12/18 08:24:42;;;;;;;33.63;18.67;;;-5.40;99.90;;;;;;4929979;29;20102;-83
2022/12/18 08:27:07;;;;;;;34.55;17.95;;;-5.40;99.90;;;;;;4931454;29;20043;-83
2022/12/18 08:29:38;;;;;;;30.08;17.00;;;-6.20;99.90;;;;;;4917506;29;21484;-84
2022/12/18 08:32:07;;;;;;;30.27;16.95;;;-5.30;99.90;;;;;;4928590;29;20092;-83
2022/12/18 08:34:36;;;;;;;29.83;16.63;;;-5.10;99.90;;;;;;4917414;29;21370;-86
2022/12/18 08:37:30;;;;;;;30.15;17.73;;;-5.20;99.90;;;;;;4907763;29;20048;-83
2022/12/18 08:39:56;;;;;;;28.48;15.70;;;-5.20;99.90;;;;;;4916128;29;20043;-82
2022/12/18 08:45:06;;;;;;;28.25;16.25;;;-4.80;99.90;;;;;;4927206;29;20067;-81
2022/12/18 08:47:31;;;;;;;26.23;15.45;;;-5.00;99.90;;;;;;4937929;29;20067;-81
2022/12/18 08:49:57;;;;;;;25.17;15.38;;;-5.00;99.90;;;;;;4916964;29;20044;-81
2022/12/18 08:52:32;;;;;;;25.80;16.65;;;-4.90;99.90;;;;;;4927793;29;20046;-86
2022/12/18 08:54:58;;;;;;;26.20;15.65;;;-4.80;99.90;;;;;;4917752;29;20051;-82
2022/12/18 08:57:24;;;;;;;25.27;15.50;;;-4.80;99.90;;;;;;4931016;29;20039;-82
2022/12/18 08:59:49;;;;;;;25.88;15.90;;;-4.70;99.90;;;;;;4915792;29;20055;-82
2022/12/18 09:02:15;;;;;;;26.88;14.18;;;-4.50;99.90;;;;;;4934704;29;20076;-82
2022/12/18 09:04:41;;;;;;;27.75;15.60;;;-4.60;99.90;;;;;;4915382;29;20038;-82
2022/12/18 09:10:03;;;;;;;23.95;14.35;;;-4.50;99.90;;;;;;4929030;29;20509;-84
2022/12/18 09:12:29;;;;;;;25.00;14.43;;;-4.50;99.90;;;;;;4928523;29;20062;-85
2022/12/18 09:15:13;;;;;;;21.40;14.20;;;-4.40;99.90;;;;;;4911492;29;20062;-85
2022/12/18 09:17:38;;;;;;;25.50;14.00;;;-4.30;99.90;;;;;;4927486;29;20680;-85
2022/12/18 09:20:06;;;;;;;24.63;13.88;;;-4.20;99.90;;;;;;4927822;29;20047;-85
2022/12/18 09:22:32;;;;;;;20.88;13.07;;;-4.30;99.90;;;;;;4913843;29;20098;-86
2022/12/18 09:24:58;;;;;;;22.63;12.48;;;-4.20;99.90;;;;;;4912343;29;20122;-85
2022/12/18 09:27:23;;;;;;;23.40;13.27;;;-4.00;99.90;;;;;;4926605;29;20129;-85
2022/12/18 09:29:50;;;;;;;22.02;13.23;;;-3.20;99.90;;;;;;4925633;29;20122;-85
2022/12/18 09:32:38;;;;;;;19.83;12.90;;;-4.00;99.90;;;;;;4924575;29;20051;-85
2022/12/18 09:35:08;;;;;;;21.27;12.70;;;-4.00;99.90;;;;;;4925592;29;20067;-85
2022/12/18 09:37:34;;;;;;;20.80;12.80;;;-3.90;99.90;;;;;;4917270;29;20044;-84
2022/12/18 09:39:59;;;;;;;17.80;11.95;;;-3.90;99.90;;;;;;4913804;29;20054;-85
2022/12/18 09:42:25;;;;;;;20.23;11.75;;;-3.80;99.90;;;;;;4923337;29;20036;-85
2022/12/18 09:44:55;;;;;;;16.33;10.68;;;-3.60;99.90;;;;;;4923015;29;20043;-87
2022/12/18 09:47:30;;;;;;;17.88;11.43;;;-3.50;99.90;;;;;;4929825;29;20084;-85
2022/12/18 09:50:03;;;;;;;16.92;10.43;;;-3.40;99.90;;;;;;4926562;29;20047;-85
2022/12/18 09:52:29;;;;;;;15.45;10.20;;;-3.30;99.90;;;;;;4910444;29;20586;-85
2022/12/18 09:55:15;;;;;;;14.90;9.57;;;-3.20;99.90;;;;;;4925590;29;20155;-85
2022/12/18 09:58:16;;;;;;;17.08;10.32;;;-3.00;99.90;;;;;;4927685;29;20035;-84
2022/12/18 10:00:58;;;;;;;15.85;9.70;;;-2.80;99.90;;;;;;4873200;29;20064;-85
2022/12/18 10:03:36;;;;;;;14.63;9.30;;;-1.70;99.90;;;;;;4924197;29;20050;-87
2022/12/18 10:06:20;;;;;;;15.98;9.85;;;-2.60;99.90;;;;;;4911720;29;20510;-85
2022/12/18 10:09:01;;;;;;;16.35;10.30;;;-2.50;99.90;;;;;;4937994;28;20118;-86
2022/12/18 10:12:11;;;;;;;16.38;9.10;;;-2.50;99.90;;;;;;4925465;29;20486;-89
2022/12/18 10:15:11;;;;;;;11.88;8.63;;;-2.40;99.90;;;;;;4924858;29;20059;-87
2022/12/18 10:18:45;;;;;;;13.25;8.45;;;-2.40;99.90;;;;;;4931092;29;20587;-87
2022/12/18 10:21:15;;;;;;;13.88;8.45;;;-2.30;99.90;;;;;;4869753;29;20405;-87
2022/12/18 10:23:54;;;;;;;14.45;8.50;;;-2.20;99.90;;;;;;4859725;29;20037;-87
2022/12/18 10:26:47;;;;;;;13.05;8.60;;;-2.20;99.90;;;;;;4843285;29;20057;-87
2022/12/18 10:30:14;;;;;;;12.45;8.10;;;-1.30;99.90;;;;;;4842696;29;20040;-87
2022/12/18 10:32:41;;;;;;;14.23;8.45;;;-2.30;99.90;;;;;;4890559;29;20103;-84
2022/12/18 10:35:27;;;;;;;12.75;7.10;;;-2.20;99.90;;;;;;4919747;29;20044;-87
2022/12/18 10:38:10;;;;;;;12.48;8.35;;;-2.20;99.90;;;;;;4919136;29;20106;-86
2022/12/18 10:40:51;;;;;;;11.20;7.45;;;-2.10;99.90;;;;;;4910628;29;20086;-86
2022/12/18 10:43:37;;;;;;;11.40;7.40;;;-2.10;99.90;;;;;;4906545;29;20122;-86
2022/12/18 10:46:09;;;;;;;10.73;7.10;;;-1.90;99.90;;;;;;4935604;28;20045;-85
2022/12/18 10:48:38;;;;;;;12.63;7.00;;;-2.00;99.90;;;;;;4905935;29;20047;-86
2022/12/18 10:51:09;;;;;;;10.68;7.57;;;-2.10;99.90;;;;;;4935692;28;20039;-85
2022/12/18 10:53:37;;;;;;;12.32;7.05;;;-1.80;99.90;;;;;;4917852;29;20039;-86
2022/12/18 10:56:29;;;;;;;9.90;6.88;;;-2.10;99.90;;;;;;4917653;29;20089;-86
2022/12/18 10:59:13;;;;;;;9.40;6.13;;;-1.80;99.90;;;;;;4923841;29;20115;-86
2022/12/18 11:01:58;;;;;;;8.30;5.93;;;-2.10;99.90;;;;;;4919427;29;20040;-84
2022/12/18 11:04:30;;;;;;;7.82;5.32;;;-1.60;99.90;;;;;;4909950;29;20126;-83
2022/12/18 11:07:01;;;;;;;10.73;6.35;;;-1.80;99.90;;;;;;4928762;29;20063;-82
2022/12/18 11:09:29;;;;;;;10.18;5.53;;;-1.90;99.90;;;;;;4923515;29;20044;-83
2022/12/18 11:11:58;;;;;;;8.55;5.65;;;-1.80;99.90;;;;;;4920993;29;20193;-84
2022/12/18 11:14:30;;;;;;;8.20;5.38;;;-1.80;99.90;;;;;;4919913;29;20036;-85
2022/12/18 11:24:32;;;;;;;6.65;4.25;;;-1.70;99.90;;;;;;4923835;29;20870;-83
2022/12/18 11:27:04;;;;;;;8.30;4.90;;;-1.60;99.90;;;;;;4923292;29;20042;-82
2022/12/18 11:29:39;;;;;;;8.68;5.00;;;-1.60;99.90;;;;;;4909085;29;20063;-84
2022/12/18 11:32:31;;;;;;;8.30;5.22;;;-1.60;99.90;;;;;;4920626;29;20068;-83
2022/12/18 11:35:18;;;;;;;7.13;4.32;;;-1.50;99.90;;;;;;4922639;29;20103;-86
2022/12/18 11:37:50;;;;;;;6.75;4.28;;;-1.50;99.90;;;;;;4926665;29;20107;-84
2022/12/18 11:40:30;;;;;;;6.68;4.68;;;-1.50;99.90;;;;;;4925258;29;20044;-83
2022/12/18 11:43:10;;;;;;;5.78;4.07;;;-1.30;99.90;;;;;;4916328;29;20090;-83
2022/12/18 11:45:46;;;;;;;7.20;3.95;;;-1.50;99.90;;;;;;4927025;29;20087;-82
2022/12/18 11:48:28;;;;;;;7.78;4.93;;;-1.40;99.90;;;;;;4915808;29;20047;-83
2022/12/18 11:50:56;;;;;;;7.10;3.67;;;-1.40;99.90;;;;;;4924204;29;20047;-84
2022/12/18 11:53:23;;;;;;;7.10;3.72;;;-1.40;99.90;;;;;;4926911;29;20055;-81
2022/12/18 11:56:27;;;;;;;5.50;3.92;;;-1.30;99.90;;;;;;4926598;29;20047;-82
2022/12/18 11:59:25;;;;;;;8.73;4.05;;;-1.30;99.90;;;;;;4848345;29;20093;-82
2022/12/18 12:01:58;;;;;;;5.85;3.78;;;-1.30;99.90;;;;;;4839434;29;20141;-82
2022/12/18 12:04:46;;;;;;;5.55;3.72;;;-1.30;99.90;;;;;;4891348;29;20044;-82
2022/12/18 12:07:18;;;;;;;4.47;3.33;;;-1.30;99.90;;;;;;4915574;29;20741;-82
2022/12/18 12:10:06;;;;;;;5.15;3.40;;;-1.20;99.90;;;;;;4928985;29;20036;-81
2022/12/18 12:13:25;;;;;;;8.25;4.22;;;-1.10;99.90;;;;;;4919901;29;20043;-82
2022/12/18 12:15:59;;;;;;;5.15;3.10;;;-1.20;99.90;;;;;;4869198;29;20073;-82
2022/12/18 12:18:33;;;;;;;7.55;3.80;;;-1.10;99.90;;;;;;4922990;29;20040;-83
2022/12/18 12:21:08;;;;;;;7.13;4.35;;;-1.10;99.90;;;;;;4918090;29;20044;-83
2022/12/18 12:24:03;;;;;;;6.43;4.38;;;-1.00;99.90;;;;;;4933144;29;20040;-83
2022/12/18 12:27:04;;;;;;;7.57;3.85;;;-1.00;99.90;;;;;;4936194;29;20118;-83
2022/12/18 12:29:41;;;;;;;5.22;3.40;;;-1.00;99.90;;;;;;4868082;29;20157;-81
2022/12/18 12:32:28;;;;;;;5.57;3.83;;;-1.00;99.90;;;;;;4914169;29;20044;-83
2022/12/18 12:35:16;;;;;;;5.65;4.03;;;-1.00;99.90;;;;;;4932522;29;20044;-82
2022/12/18 12:38:06;;;;;;;6.03;3.80;;;-0.90;99.90;;;;;;4918611;29;20093;-82
2022/12/18 12:40:37;;;;;;;8.43;4.95;;;-0.60;99.90;;;;;;4932894;29;20051;-81
2022/12/18 12:43:19;;;;;;;7.82;4.30;;;-0.70;99.90;;;;;;4919823;29;20035;-82
2022/12/18 12:46:02;;;;;;;6.95;3.85;;;-0.90;99.90;;;;;;4927673;29;20074;-84
2022/12/18 12:48:45;;;;;;;9.50;4.45;;;-0.90;99.90;;;;;;4918247;29;20040;-83
2022/12/18 12:51:31;;;;;;;7.97;4.20;;;-0.80;99.90;;;;;;4937858;29;20075;-83
2022/12/18 12:53:59;;;;;;;6.18;4.45;;;-0.80;99.90;;;;;;4931859;29;20083;-81
2022/12/18 12:56:32;;;;;;;6.25;4.10;;;-0.80;99.90;;;;;;4931115;29;20067;-83
2022/12/18 12:59:10;;;;;;;6.55;4.45;;;-0.80;99.90;;;;;;4946618;28;20059;-81
2022/12/18 13:01:54;;;;;;;6.57;4.22;;;-0.70;99.90;;;;;;4922351;29;20079;-84
2022/12/18 13:04:27;;;;;;;7.70;4.45;;;-0.70;99.90;;;;;;4907197;29;20035;-84
2022/12/18 13:07:16;;;;;;;6.50;4.28;;;-0.70;99.90;;;;;;4905563;29;20036;-84
2022/12/18 13:10:16;;;;;;;5.82;4.32;;;-0.70;99.90;;;;;;4911345;29;20119;-84
2022/12/18 13:12:58;;;;;;;6.72;4.25;;;-0.60;99.90;;;;;;4927517;29;20120;-84